createdAt,value
2022-08-24T00:00:18.039Z,4.65
2022-08-24T00:02:44.999Z,6.20
2022-08-24T00:05:14.708Z,4.57
2022-08-24T00:07:41.799Z,5.20
2022-08-24T00:10:10.697Z,5.75
2022-08-24T00:12:37.539Z,5.57
2022-08-24T00:15:06.233Z,4.88
2022-08-24T00:17:34.222Z,6.15
2022-08-24T00:20:01.110Z,4.50
2022-08-24T00:22:28.948Z,6.18
2022-08-24T00:24:56.753Z,7.03
2022-08-24T00:27:23.378Z,4.80
2022-08-24T00:29:50.076Z,6.22
2022-08-24T00:32:16.682Z,5.82
2022-08-24T00:34:58.928Z,4.68
2022-08-24T00:37:28.610Z,5.97
2022-08-24T00:39:56.334Z,6.28
2022-08-24T00:42:24.202Z,6.50
2022-08-24T00:44:50.942Z,5.43
2022-08-24T00:47:23.940Z,6.32
2022-08-24T00:49:54.554Z,4.83
2022-08-24T00:52:38.911Z,4.88
2022-08-24T00:55:15.122Z,5.10
2022-08-24T00:57:45.523Z,6.60
2022-08-24T01:00:19.105Z,6.43
2022-08-24T01:02:48.839Z,5.20
2022-08-24T01:05:19.102Z,8.40
2022-08-24T01:07:49.285Z,6.85
2022-08-24T01:10:19.726Z,5.15
2022-08-24T01:12:59.912Z,4.70
2022-08-24T01:15:30.819Z,7.37
2022-08-24T01:18:16.934Z,6.43
2022-08-24T01:20:49.374Z,8.57
2022-08-24T01:23:36.464Z,5.43
2022-08-24T01:26:04.383Z,8.25
2022-08-24T01:28:31.288Z,7.43
2022-08-24T01:30:59.893Z,4.87
2022-08-24T01:33:31.388Z,4.63
2022-08-24T01:36:04.587Z,7.00
2022-08-24T01:38:33.005Z,6.93
2022-08-24T01:41:02.407Z,6.07
2022-08-24T01:43:29.757Z,5.05
2022-08-24T01:45:57.800Z,4.60
2022-08-24T01:48:24.647Z,5.87
2022-08-24T01:50:53.073Z,6.95
2022-08-24T01:53:21.674Z,5.70
2022-08-24T01:55:48.828Z,6.07
2022-08-24T01:58:15.868Z,7.50
2022-08-24T02:00:44.590Z,6.60
2022-08-24T02:03:13.300Z,8.85
2022-08-24T02:05:40.455Z,7.35
2022-08-24T02:08:08.956Z,7.03
2022-08-24T02:10:35.603Z,7.13
2022-08-24T02:13:04.327Z,8.90
2022-08-24T02:15:40.189Z,9.88
2022-08-24T02:18:14.778Z,6.33
2022-08-24T02:20:43.325Z,6.70
2022-08-24T02:23:10.093Z,6.45
2022-08-24T02:25:36.889Z,5.53
2022-08-24T02:28:03.981Z,5.72
2022-08-24T02:30:32.097Z,6.25
2022-08-24T02:33:00.254Z,8.38
2022-08-24T02:35:29.738Z,6.95
2022-08-24T02:37:57.983Z,6.82
2022-08-24T02:40:26.757Z,9.80
2022-08-24T02:42:55.621Z,8.95
2022-08-24T02:45:22.296Z,8.02
2022-08-24T02:47:49.855Z,8.27
2022-08-24T02:50:18.735Z,8.00
2022-08-24T02:52:46.370Z,8.25
2022-08-24T02:55:19.828Z,6.38
2022-08-24T02:57:48.201Z,7.43
2022-08-24T03:00:17.800Z,6.10
2022-08-24T03:02:51.566Z,6.60
2022-08-24T03:05:18.973Z,5.00
2022-08-24T03:07:46.097Z,7.53
2022-08-24T03:10:13.215Z,7.07
2022-08-24T03:12:40.667Z,5.43
2022-08-24T03:15:10.543Z,7.30
2022-08-24T03:17:39.869Z,5.80
2022-08-24T03:20:11.714Z,7.32
2022-08-24T03:22:38.934Z,7.18
2022-08-24T03:25:06.553Z,5.05
2022-08-24T03:27:33.151Z,6.35
2022-08-24T03:29:59.821Z,6.10
2022-08-24T03:32:27.863Z,7.07
2022-08-24T03:34:55.872Z,7.55
2022-08-24T03:37:22.490Z,5.72
2022-08-24T03:39:51.029Z,6.83
2022-08-24T03:42:18.181Z,5.32
2022-08-24T03:44:44.817Z,6.00
2022-08-24T03:47:11.859Z,5.82
2022-08-24T03:49:39.741Z,6.40
2022-08-24T03:52:06.884Z,5.82
2022-08-24T03:54:34.275Z,6.75
2022-08-24T03:57:01.642Z,6.68
2022-08-24T03:59:28.859Z,8.38
2022-08-24T04:01:58.067Z,9.27
2022-08-24T04:04:27.122Z,6.93
2022-08-24T04:06:53.869Z,5.43
2022-08-24T04:09:23.698Z,7.22
2022-08-24T04:11:51.850Z,7.13
2022-08-24T04:14:27.381Z,4.75
2022-08-24T04:17:06.482Z,5.72
2022-08-24T04:19:57.329Z,4.32
2022-08-24T04:22:29.501Z,5.07
2022-08-24T04:24:56.337Z,5.57
2022-08-24T04:27:23.614Z,4.25
2022-08-24T04:29:51.024Z,5.25
2022-08-24T04:32:18.909Z,5.72
2022-08-24T04:34:47.133Z,6.63
2022-08-24T04:37:15.006Z,5.40
2022-08-24T04:39:42.622Z,6.93
2022-08-24T04:42:31.711Z,6.22
2022-08-24T04:45:00.668Z,5.03
2022-08-24T04:47:27.339Z,4.45
2022-08-24T04:49:53.997Z,7.20
2022-08-24T04:52:20.798Z,5.10
2022-08-24T04:54:47.417Z,4.82
2022-08-24T04:57:20.785Z,5.28
2022-08-24T04:59:48.448Z,4.03
2022-08-24T05:02:15.312Z,5.43
2022-08-24T05:04:44.497Z,4.97
2022-08-24T05:07:12.348Z,4.13
2022-08-24T05:09:41.075Z,5.03
2022-08-24T05:12:08.136Z,6.60
2022-08-24T05:14:38.936Z,5.97
2022-08-24T05:17:05.980Z,5.10
2022-08-24T05:19:37.394Z,7.20
2022-08-24T05:22:05.338Z,6.65
2022-08-24T05:24:32.070Z,7.80
2022-08-24T05:27:00.456Z,7.22
2022-08-24T05:29:29.147Z,6.63
2022-08-24T05:31:55.919Z,6.35
2022-08-24T05:34:23.986Z,6.38
2022-08-24T05:36:51.749Z,4.60
2022-08-24T05:39:32.801Z,5.93
2022-08-24T05:42:05.064Z,5.70
2022-08-24T05:44:37.852Z,5.03
2022-08-24T05:47:05.004Z,5.60
2022-08-24T05:49:31.843Z,5.60
2022-08-24T05:51:58.888Z,7.67
2022-08-24T05:54:26.910Z,4.83
2022-08-24T05:57:04.672Z,6.53
2022-08-24T05:59:37.796Z,7.43
2022-08-24T06:02:10.404Z,5.88
2022-08-24T06:04:38.199Z,7.25
2022-08-24T06:07:09.146Z,5.32
2022-08-24T06:09:39.454Z,4.20
2022-08-24T06:12:07.059Z,6.50
2022-08-24T06:14:34.604Z,7.05
2022-08-24T06:17:05.940Z,4.97
2022-08-24T06:19:33.163Z,4.10
2022-08-24T06:21:59.812Z,5.87
2022-08-24T06:24:47.486Z,4.13
2022-08-24T06:27:23.298Z,4.68
2022-08-24T06:29:59.223Z,6.18
2022-08-24T06:32:44.171Z,4.15
2022-08-24T06:35:20.872Z,8.00
2022-08-24T06:37:48.336Z,4.10
2022-08-24T06:40:15.815Z,4.50
2022-08-24T06:42:43.538Z,5.78
2022-08-24T06:45:22.311Z,5.03
2022-08-24T06:47:51.060Z,3.22
2022-08-24T06:50:19.566Z,4.55
2022-08-24T06:52:51.047Z,4.73
2022-08-24T06:55:17.938Z,4.25
2022-08-24T06:57:47.961Z,4.15
2022-08-24T07:00:17.748Z,3.75
2022-08-24T07:02:44.837Z,3.13
2022-08-24T07:05:11.794Z,3.78
2022-08-24T07:08:06.153Z,4.00
2022-08-24T07:10:34.407Z,3.28
2022-08-24T07:13:01.365Z,6.38
2022-08-24T07:15:28.165Z,4.10
2022-08-24T07:18:10.004Z,3.60
2022-08-24T07:20:39.608Z,5.15
2022-08-24T07:23:14.615Z,3.80
2022-08-24T07:25:46.240Z,3.60
2022-08-24T07:28:16.742Z,5.43
2022-08-24T07:30:44.173Z,2.73
2022-08-24T07:33:13.211Z,2.90
2022-08-24T07:35:41.561Z,4.05
2022-08-24T07:38:08.712Z,4.72
2022-08-24T07:41:01.664Z,4.18
2022-08-24T07:43:24.049Z,5.30
2022-08-24T07:45:51.753Z,3.33
2022-08-24T07:48:19.366Z,3.05
2022-08-24T07:50:47.121Z,2.92
2022-08-24T07:53:20.675Z,3.03
2022-08-24T07:55:54.058Z,4.13
2022-08-24T07:58:21.432Z,3.70
2022-08-24T08:00:49.506Z,3.90
2022-08-24T08:03:16.865Z,3.35
2022-08-24T08:05:45.145Z,3.47
2022-08-24T08:08:12.073Z,3.65
2022-08-24T08:10:40.730Z,2.90
2022-08-24T08:13:08.096Z,2.67
2022-08-24T08:15:36.241Z,4.13
2022-08-24T08:18:07.808Z,3.45
2022-08-24T08:20:40.412Z,4.05
2022-08-24T08:23:26.260Z,5.70
2022-08-24T08:25:59.400Z,3.92
2022-08-24T08:28:48.899Z,4.05
2022-08-24T08:31:15.932Z,3.50
2022-08-24T08:33:42.713Z,4.38
2022-08-24T08:36:15.075Z,6.13
2022-08-24T08:38:46.694Z,5.72
2022-08-24T08:41:25.970Z,3.55
2022-08-24T08:44:20.020Z,3.70
2022-08-24T08:46:52.993Z,4.78
2022-08-24T08:49:51.040Z,3.50
2022-08-24T08:52:27.234Z,4.10
2022-08-24T08:55:21.873Z,3.03
2022-08-24T08:58:18.585Z,4.47
2022-08-24T09:00:52.915Z,4.38
2022-08-24T09:04:03.532Z,3.35
2022-08-24T09:06:46.262Z,4.53
2022-08-24T09:09:34.990Z,3.63
2022-08-24T09:12:08.902Z,3.60
2022-08-24T09:14:59.974Z,2.92
2022-08-24T09:17:50.089Z,3.83
2022-08-24T09:20:29.052Z,4.00
2022-08-24T09:23:18.845Z,3.10
2022-08-24T09:25:58.374Z,3.70
2022-08-24T09:28:37.935Z,4.93
2022-08-24T09:34:23.593Z,2.88
2022-08-24T09:37:09.926Z,3.25
2022-08-24T09:39:58.673Z,4.40
2022-08-24T09:42:59.997Z,4.47
2022-08-24T09:45:58.414Z,5.35
2022-08-24T09:48:26.153Z,4.00
2022-08-24T09:50:58.557Z,6.78
2022-08-24T09:53:28.126Z,3.30
2022-08-24T09:56:27.988Z,6.82
2022-08-24T09:58:57.817Z,7.25
2022-08-24T10:02:02.822Z,3.80
2022-08-24T10:04:43.139Z,4.38
2022-08-24T10:07:22.437Z,3.70
2022-08-24T10:10:16.308Z,5.65
2022-08-24T10:13:18.497Z,4.63
2022-08-24T10:15:58.760Z,6.47
2022-08-24T10:18:48.331Z,2.92
2022-08-24T10:21:37.150Z,3.17
2022-08-24T10:24:06.473Z,2.65
2022-08-24T10:27:18.620Z,2.67
2022-08-24T10:30:28.228Z,2.10
2022-08-24T10:33:07.326Z,4.13
2022-08-24T10:35:48.514Z,2.88
2022-08-24T10:39:06.854Z,2.42
2022-08-24T10:42:06.429Z,3.28
2022-08-24T10:44:49.961Z,3.17
2022-08-24T10:47:23.206Z,4.53
2022-08-24T10:50:31.039Z,3.72
2022-08-24T10:53:19.005Z,3.28
2022-08-24T10:55:46.020Z,2.58
2022-08-24T10:58:40.879Z,4.50
2022-08-24T11:01:35.433Z,1.90
2022-08-24T11:04:09.875Z,4.07
2022-08-24T11:06:39.490Z,4.65
2022-08-24T11:09:19.738Z,1.77
2022-08-24T11:11:49.871Z,5.68
2022-08-24T11:14:16.419Z,3.75
2022-08-24T11:16:45.612Z,6.60
2022-08-24T11:19:25.930Z,4.50
2022-08-24T11:21:55.176Z,3.15
2022-08-24T11:24:39.960Z,2.57
2022-08-24T11:27:31.139Z,2.45
2022-08-24T11:30:02.273Z,7.32
2022-08-24T11:32:31.593Z,2.17
2022-08-24T11:35:16.240Z,3.65
2022-08-24T11:37:43.717Z,2.58
2022-08-24T11:40:10.833Z,3.40
2022-08-24T11:42:49.623Z,4.80
2022-08-24T11:45:25.873Z,2.80
2022-08-24T11:48:12.428Z,5.88
2022-08-24T11:50:57.004Z,2.65
2022-08-24T11:53:33.222Z,4.20
2022-08-24T11:56:00.645Z,5.10
2022-08-24T11:58:37.754Z,5.10
2022-08-24T12:01:35.280Z,4.45
2022-08-24T12:04:17.662Z,3.15
2022-08-24T12:07:20.299Z,2.42
2022-08-24T12:10:01.416Z,5.43
2022-08-24T12:12:28.024Z,5.88
2022-08-24T12:15:03.866Z,3.30
2022-08-24T12:17:51.768Z,4.22
2022-08-24T12:20:41.144Z,3.10
2022-08-24T12:23:15.162Z,4.90
2022-08-24T12:26:04.559Z,4.22
2022-08-24T12:28:44.060Z,4.25
2022-08-24T12:31:29.442Z,1.95
2022-08-24T12:34:01.981Z,3.17
2022-08-24T12:36:36.492Z,5.25
2022-08-24T12:39:10.946Z,1.90
2022-08-24T12:41:48.612Z,2.25
2022-08-24T12:44:17.211Z,3.63
2022-08-24T12:46:44.650Z,2.33
2022-08-24T12:49:50.665Z,2.70
2022-08-24T12:52:35.524Z,2.07
2022-08-24T12:55:19.676Z,3.70
2022-08-24T12:58:40.156Z,2.43
2022-08-24T13:01:26.961Z,5.95
2022-08-24T13:04:08.182Z,3.35
2022-08-24T13:06:42.624Z,2.75
2022-08-24T13:09:26.742Z,4.85
2022-08-24T13:11:55.932Z,2.47
2022-08-24T13:14:29.283Z,2.63
2022-08-24T13:16:56.321Z,2.15
2022-08-24T13:19:23.021Z,2.78
2022-08-24T13:21:59.036Z,2.70
2022-08-24T13:24:28.689Z,2.70
2022-08-24T13:26:57.389Z,2.67
2022-08-24T13:29:33.427Z,3.58
2022-08-24T13:32:01.683Z,6.47
2022-08-24T13:34:44.289Z,5.57
2022-08-24T13:37:18.684Z,3.87
2022-08-24T13:40:16.441Z,2.47
2022-08-24T13:43:27.261Z,5.13
2022-08-24T13:46:26.223Z,4.43
2022-08-24T13:49:01.521Z,4.83
2022-08-24T13:51:30.652Z,6.72
2022-08-24T13:54:03.777Z,4.55
2022-08-24T13:56:58.405Z,3.38
2022-08-24T13:59:55.843Z,6.97
2022-08-24T14:02:29.328Z,3.00
2022-08-24T14:05:12.849Z,6.17
2022-08-24T14:08:14.976Z,3.35
2022-08-24T14:10:48.654Z,6.20
2022-08-24T14:13:41.194Z,4.55
2022-08-24T14:16:45.369Z,5.13
2022-08-24T14:19:25.225Z,5.28
2022-08-24T14:22:24.244Z,3.30
2022-08-24T14:25:01.973Z,3.50
2022-08-24T14:27:40.777Z,3.30
2022-08-24T14:30:19.856Z,4.97
2022-08-24T14:32:58.688Z,4.60
2022-08-24T14:35:32.033Z,3.13
2022-08-24T14:38:28.937Z,5.30
2022-08-24T14:41:10.766Z,5.13
2022-08-24T14:43:55.910Z,3.42
2022-08-24T14:46:43.034Z,3.72
2022-08-24T14:49:42.229Z,3.72
2022-08-24T14:52:50.445Z,5.10
2022-08-24T14:55:32.065Z,3.60
2022-08-24T14:58:11.574Z,6.00
2022-08-24T15:00:52.825Z,4.78
2022-08-24T15:03:49.834Z,5.80
2022-08-24T15:06:39.627Z,5.68
2022-08-24T15:09:27.244Z,5.57
2022-08-24T15:12:10.783Z,4.47
2022-08-24T15:14:48.321Z,4.07
2022-08-24T15:17:23.309Z,9.90
2022-08-24T15:20:08.570Z,5.43
2022-08-24T15:23:02.213Z,6.15
2022-08-24T15:25:36.855Z,4.83
2022-08-24T15:28:08.394Z,5.13
2022-08-24T15:30:39.843Z,5.90
2022-08-24T15:33:09.436Z,4.68
2022-08-24T15:35:41.094Z,3.70
2022-08-24T15:38:29.261Z,5.00
2022-08-24T15:41:14.330Z,4.77
2022-08-24T15:44:01.087Z,5.47
2022-08-24T15:46:42.371Z,4.85
2022-08-24T15:49:21.009Z,6.03
2022-08-24T15:51:58.330Z,4.13
2022-08-24T15:54:25.514Z,4.63
2022-08-24T15:57:00.730Z,3.53
2022-08-24T15:59:39.528Z,4.13
2022-08-24T16:02:30.980Z,5.75
2022-08-24T16:05:09.416Z,6.23
2022-08-24T16:08:04.326Z,5.22
2022-08-24T16:10:33.324Z,5.63
2022-08-24T16:13:28.738Z,6.03
2022-08-24T16:16:09.353Z,5.70
2022-08-24T16:18:50.199Z,4.47
2022-08-24T16:21:45.225Z,4.55
2022-08-24T16:24:37.353Z,5.07
2022-08-24T16:27:03.989Z,4.75
2022-08-24T16:29:37.035Z,5.30
2022-08-24T16:32:26.701Z,3.90
2022-08-24T16:35:17.141Z,4.35
2022-08-24T16:37:43.752Z,5.80
2022-08-24T16:40:14.117Z,4.53
2022-08-24T16:42:41.557Z,4.75
2022-08-24T16:45:10.779Z,6.03
2022-08-24T16:47:37.668Z,5.90
2022-08-24T16:50:06.669Z,4.22
2022-08-24T16:52:33.528Z,4.20
2022-08-24T16:55:01.458Z,4.35
2022-08-24T16:57:31.743Z,5.47
2022-08-24T16:59:58.667Z,4.77
2022-08-24T17:02:28.487Z,4.20
2022-08-24T17:04:56.141Z,4.80
2022-08-24T17:07:31.831Z,6.82
2022-08-24T17:10:05.292Z,3.30
2022-08-24T17:12:32.007Z,5.18
2022-08-24T17:14:59.156Z,5.40
2022-08-24T17:17:26.021Z,3.92
2022-08-24T17:19:54.350Z,6.05
2022-08-24T17:22:23.144Z,4.43
2022-08-24T17:24:50.370Z,5.47
2022-08-24T17:27:20.881Z,4.40
2022-08-24T17:29:48.455Z,3.90
2022-08-24T17:32:16.310Z,4.55
2022-08-24T17:34:43.000Z,5.05
2022-08-24T17:37:10.416Z,3.75
2022-08-24T17:39:37.470Z,6.78
2022-08-24T17:42:12.704Z,5.30
2022-08-24T17:44:51.004Z,5.20
2022-08-24T17:47:18.882Z,5.28
2022-08-24T17:49:46.853Z,5.13
2022-08-24T17:52:17.157Z,4.30
2022-08-24T17:54:43.780Z,4.75
2022-08-24T17:57:13.154Z,5.82
2022-08-24T17:59:39.886Z,8.03
2022-08-24T18:02:09.947Z,6.60
2022-08-24T18:04:38.228Z,4.90
2022-08-24T18:07:11.694Z,5.93
2022-08-24T18:09:54.818Z,5.15
2022-08-24T18:12:25.081Z,6.10
2022-08-24T18:14:52.767Z,7.53
2022-08-24T18:17:23.036Z,5.30
2022-08-24T18:19:50.897Z,5.82
2022-08-24T18:22:17.566Z,6.35
2022-08-24T18:24:44.723Z,8.17
2022-08-24T18:27:17.651Z,6.75
2022-08-24T18:29:46.390Z,9.50
2022-08-24T18:32:13.451Z,8.30
2022-08-24T18:34:43.065Z,6.03
2022-08-24T18:37:09.688Z,6.22
2022-08-24T18:39:36.648Z,5.93
2022-08-24T18:42:08.799Z,6.78
2022-08-24T18:44:37.008Z,6.10
2022-08-24T18:47:03.851Z,5.68
2022-08-24T18:49:30.445Z,6.97
2022-08-24T18:51:58.093Z,4.60
2022-08-24T18:54:37.844Z,7.57
2022-08-24T18:57:07.021Z,4.65
2022-08-24T18:59:35.407Z,6.47
2022-08-24T19:02:32.001Z,6.20
2022-08-24T19:05:01.256Z,6.18
2022-08-24T19:07:30.274Z,6.35
2022-08-24T19:09:57.103Z,5.07
2022-08-24T19:12:24.173Z,5.50
2022-08-24T19:14:56.799Z,6.35
2022-08-24T19:17:23.694Z,4.93
2022-08-24T19:19:50.337Z,4.95
2022-08-24T19:22:17.401Z,7.68
2022-08-24T19:24:45.026Z,7.13
2022-08-24T19:27:12.016Z,6.53
2022-08-24T19:29:55.266Z,8.98
2022-08-24T19:32:25.732Z,5.93
2022-08-24T19:34:55.880Z,9.00
2022-08-24T19:37:25.526Z,7.65
2022-08-24T19:39:53.062Z,10.60
2022-08-24T19:42:20.977Z,12.68
2022-08-24T19:45:06.831Z,16.15
2022-08-24T19:47:34.486Z,16.30
2022-08-24T19:50:03.821Z,17.15
2022-08-24T19:52:32.565Z,18.00
2022-08-24T19:54:59.409Z,19.15
2022-08-24T19:57:42.603Z,19.80
2022-08-24T20:00:18.010Z,21.50
2022-08-24T20:02:49.685Z,22.55
2022-08-24T20:05:18.689Z,23.08
2022-08-24T20:07:46.435Z,27.58
2022-08-24T20:10:14.920Z,25.13
2022-08-24T20:12:42.100Z,24.85
2022-08-24T20:15:09.205Z,23.98
2022-08-24T20:17:36.669Z,26.97
2022-08-24T20:20:06.344Z,25.80
2022-08-24T20:22:33.217Z,30.30
2022-08-24T20:24:59.964Z,30.27
2022-08-24T20:27:27.893Z,31.08
2022-08-24T20:29:55.364Z,37.07
2022-08-24T20:32:22.848Z,55.03
2022-08-24T20:34:50.000Z,60.38
2022-08-24T20:37:27.069Z,70.13
2022-08-24T20:39:58.000Z,74.60
2022-08-24T20:42:26.987Z,76.88
2022-08-24T20:44:54.799Z,80.95
2022-08-24T20:47:22.416Z,84.03
2022-08-24T20:49:51.462Z,96.53
2022-08-24T20:52:18.377Z,106.97
2022-08-24T20:54:45.162Z,121.05
2022-08-24T20:57:16.784Z,123.77
2022-08-24T20:59:43.617Z,146.77
2022-08-24T21:02:10.320Z,153.65
2022-08-24T21:04:37.627Z,161.45
2022-08-24T21:07:08.330Z,189.40
2022-08-24T21:09:34.940Z,198.27
2022-08-24T21:12:01.535Z,206.82
2022-08-24T21:14:28.344Z,214.82
2022-08-24T21:16:57.236Z,225.80
2022-08-24T21:19:23.934Z,236.40
2022-08-24T21:21:51.136Z,240.50
2022-08-24T21:24:18.132Z,240.00
2022-08-24T21:26:45.086Z,247.43
2022-08-24T21:29:11.711Z,247.20
2022-08-24T21:31:38.901Z,250.15
2022-08-24T21:34:32.016Z,255.82
2022-08-24T21:36:58.641Z,253.48
2022-08-24T21:39:26.627Z,254.57
2022-08-24T21:41:54.689Z,249.65
2022-08-24T21:44:21.948Z,252.05
2022-08-24T21:46:53.282Z,258.00
2022-08-24T21:49:20.730Z,257.80
2022-08-24T21:51:47.441Z,255.13
2022-08-24T21:54:14.206Z,256.88
2022-08-24T21:56:40.951Z,259.30
2022-08-24T21:59:07.597Z,257.80
2022-08-24T22:01:34.513Z,253.70
2022-08-24T22:04:01.589Z,260.27
2022-08-24T22:06:31.606Z,263.50
2022-08-24T22:08:59.746Z,262.15
2022-08-24T22:11:26.461Z,268.20
2022-08-24T22:13:53.939Z,266.25
2022-08-24T22:16:21.900Z,269.20
2022-08-24T22:18:49.297Z,274.10
2022-08-24T22:21:19.564Z,270.33
2022-08-24T22:23:46.356Z,270.90
2022-08-24T22:26:13.056Z,271.25
2022-08-24T22:28:41.522Z,277.63
2022-08-24T22:31:17.214Z,276.52
2022-08-24T22:33:44.162Z,277.90
2022-08-24T22:36:11.481Z,287.45
2022-08-24T22:38:39.259Z,287.03
2022-08-24T22:41:06.726Z,288.95
2022-08-24T22:43:51.660Z,292.02
2022-08-24T22:46:18.694Z,294.02
2022-08-24T22:48:45.494Z,293.83
2022-08-24T22:51:12.887Z,295.33
2022-08-24T22:53:40.528Z,293.98
2022-08-24T22:56:25.675Z,294.98
2022-08-24T22:58:52.735Z,291.42
2022-08-24T23:01:26.490Z,290.17
2022-08-24T23:03:54.302Z,293.15
2022-08-24T23:06:21.995Z,290.60
2022-08-24T23:08:48.919Z,294.98
2022-08-24T23:11:15.975Z,296.38
2022-08-24T23:13:42.750Z,300.17
2022-08-24T23:16:12.294Z,296.67
2022-08-24T23:19:17.664Z,298.45
2022-08-24T23:21:44.768Z,300.70
2022-08-24T23:24:12.254Z,298.25
2022-08-24T23:26:40.147Z,306.13
2022-08-24T23:29:08.998Z,305.50
2022-08-24T23:31:36.883Z,309.58
2022-08-24T23:34:04.005Z,309.23
2022-08-24T23:36:30.753Z,310.43
2022-08-24T23:38:59.452Z,310.25
2022-08-24T23:41:29.946Z,309.13
2022-08-24T23:43:59.412Z,310.75
2022-08-24T23:46:26.890Z,309.67
2022-08-24T23:48:55.555Z,309.20
2022-08-24T23:51:23.922Z,308.40
2022-08-24T23:53:52.012Z,312.13
2022-08-24T23:56:30.814Z,305.92
2022-08-24T23:59:01.369Z,306.73
